Time;durP1;ratioP1;P1;durP2;ratioP2;P2;SDS_P1;SDS_P2;PMS_P1;PMS_P2;Temp;Humidity;BMP_temperature;BMP_pressure;BME280_temperature;BME280_humidity;BME280_pressure;Samples;Min_cycle;Max_cycle;Signal;HPM_P1;HPM_P2
2023/07/30 00:03:17;;;;;;;3.22;1.35;;;;;;;24.26;100.00;100536.31;5044405;28;20403;-82
2023/07/30 00:05:53;;;;;;;2.15;1.48;;;;;;;24.11;100.00;100560.44;5039708;28;20053;-81
2023/07/30 00:08:22;;;;;;;2.38;1.02;;;;;;;24.02;100.00;100543.88;5025668;28;20061;-81
2023/07/30 00:10:50;;;;;;;1.23;0.98;;;;;;;23.93;100.00;100514.56;5025530;28;20058;-82
2023/07/30 00:13:18;;;;;;;1.30;1.00;;;;;;;24.01;100.00;100499.53;5024452;28;20404;-83
2023/07/30 00:15:47;;;;;;;1.35;1.25;;;;;;;24.03;100.00;100520.34;5040647;28;20419;-81
2023/07/30 00:18:16;;;;;;;1.08;0.98;;;;;;;23.83;100.00;100530.78;5027642;28;20391;-82
2023/07/30 00:20:44;;;;;;;2.05;1.10;;;;;;;23.73;100.00;100528.59;5026551;28;20084;-82
2023/07/30 00:23:12;;;;;;;1.55;1.27;;;;;;;23.85;100.00;100510.84;5023618;28;20042;-81
2023/07/30 00:25:40;;;;;;;1.80;1.25;;;;;;;23.88;100.00;100477.38;5056002;28;20071;-83
2023/07/30 00:28:08;;;;;;;2.92;1.75;;;;;;;23.85;100.00;100452.97;5025122;28;20072;-84
2023/07/30 00:30:36;;;;;;;3.40;2.03;;;;;;;23.67;100.00;100463.88;5025043;28;20077;-82
2023/07/30 00:33:04;;;;;;;2.33;1.90;;;;;;;23.66;100.00;100455.84;5025147;28;20046;-84
2023/07/30 00:35:32;;;;;;;5.40;2.45;;;;;;;23.51;100.00;100450.00;5024919;28;20108;-84
2023/07/30 00:38:01;;;;;;;2.55;2.35;;;;;;;23.32;100.00;100434.13;5031648;28;20061;-83
2023/07/30 00:40:29;;;;;;;3.95;2.10;;;;;;;23.23;100.00;100437.16;5027335;28;20045;-82
2023/07/30 00:42:57;;;;;;;4.05;2.10;;;;;;;23.33;100.00;100438.53;5046101;28;20057;-82
2023/07/30 00:45:25;;;;;;;4.70;2.45;;;;;;;23.35;100.00;100431.41;5038009;28;20038;-82
2023/07/30 00:47:54;;;;;;;5.32;2.72;;;;;;;23.39;100.00;100425.06;5038938;28;20088;-84
2023/07/30 00:50:23;;;;;;;4.65;2.47;;;;;;;23.52;100.00;100420.94;5044899;28;20132;-82
2023/07/30 00:52:51;;;;;;;4.65;2.88;;;;;;;23.40;100.00;100421.91;5031646;28;20076;-83
2023/07/30 00:55:19;;;;;;;2.92;2.40;;;;;;;23.20;100.00;100418.34;5023613;28;20046;-82
2023/07/30 00:57:48;;;;;;;4.20;2.55;;;;;;;23.37;100.00;100411.50;5036492;28;20068;-82
2023/07/30 01:00:17;;;;;;;2.22;1.80;;;;;;;23.18;100.00;100406.75;5025170;28;20046;-82
2023/07/30 01:02:45;;;;;;;3.03;1.98;;;;;;;22.91;100.00;100395.47;5010588;28;20053;-81
2023/07/30 01:05:13;;;;;;;2.25;1.80;;;;;;;23.28;100.00;100375.44;5011445;28;20049;-83
2023/07/30 01:07:41;;;;;;;4.15;2.17;;;;;;;23.33;100.00;100388.28;5014989;28;20058;-82
2023/07/30 01:10:10;;;;;;;5.40;2.70;;;;;;;23.51;100.00;100382.19;5011812;28;20046;-83
2023/07/30 01:12:39;;;;;;;19.20;6.57;;;;;;;23.35;100.00;100403.50;5015435;28;20077;-83
2023/07/30 01:15:08;;;;;;;12.20;5.70;;;;;;;23.44;100.00;100430.34;5011454;28;20064;-84
2023/07/30 01:17:36;;;;;;;20.88;6.85;;;;;;;23.38;100.00;100440.22;5015656;28;20416;-83
2023/07/30 01:20:05;;;;;;;13.48;5.13;;;;;;;23.32;100.00;100448.88;5014858;28;20057;-83
2023/07/30 01:22:33;;;;;;;7.88;4.20;;;;;;;23.46;100.00;100434.38;5011150;28;20408;-83
2023/07/30 01:25:02;;;;;;;6.13;3.30;;;;;;;23.43;100.00;100432.34;5009784;28;20412;-84
2023/07/30 01:27:37;;;;;;;5.72;2.72;;;;;;;23.43;100.00;100418.38;5011124;28;20061;-84
2023/07/30 01:30:10;;;;;;;4.95;2.63;;;;;;;23.39;100.00;100385.97;5012241;28;20053;-84
2023/07/30 01:32:40;;;;;;;9.77;3.78;;;;;;;23.48;100.00;100358.63;5012291;28;20437;-84
2023/07/30 01:35:09;;;;;;;15.13;6.93;;;;;;;23.47;100.00;100343.84;5010616;28;20046;-83
2023/07/30 01:37:40;;;;;;;19.25;7.75;;;;;;;23.17;100.00;100340.94;5010712;28;20057;-84
2023/07/30 01:40:09;;;;;;;26.05;9.32;;;;;;;23.09;100.00;100349.19;5010764;28;20062;-84
2023/07/30 01:42:38;;;;;;;20.80;7.85;;;;;;;23.22;100.00;100344.22;5010989;28;20061;-84
2023/07/30 01:45:06;;;;;;;14.82;6.20;;;;;;;23.18;100.00;100339.75;5018798;28;20045;-84
2023/07/30 01:47:35;;;;;;;13.18;5.53;;;;;;;23.23;100.00;100331.06;5015446;28;20054;-83
2023/07/30 01:50:03;;;;;;;12.70;6.15;;;;;;;23.13;100.00;100324.13;5010078;28;20054;-85
2023/07/30 01:52:31;;;;;;;14.20;5.80;;;;;;;23.38;100.00;100303.41;5010336;28;20050;-85
2023/07/30 01:55:00;;;;;;;10.00;4.78;;;;;;;23.03;100.00;100285.69;5014268;28;20050;-84
2023/07/30 01:57:29;;;;;;;8.48;4.95;;;;;;;23.03;100.00;100266.16;5023047;28;20045;-86
2023/07/30 01:59:58;;;;;;;3.72;2.63;;;;;;;23.15;100.00;100267.94;5011139;28;20046;-85
2023/07/30 02:02:26;;;;;;;3.20;1.98;;;;;;;23.06;100.00;100282.94;5007955;28;20050;-85
2023/07/30 02:04:55;;;;;;;3.55;2.30;;;;;;;22.90;100.00;100301.78;5010271;28;20050;-85
2023/07/30 02:07:23;;;;;;;2.53;1.77;;;;;;;23.06;100.00;100308.06;5024121;28;20057;-85
2023/07/30 02:09:56;;;;;;;2.20;1.90;;;;;;;23.01;100.00;100302.78;5029694;28;20061;-85
2023/07/30 02:12:25;;;;;;;2.85;2.10;;;;;;;22.78;100.00;100314.75;5029508;28;20064;-86
2023/07/30 02:14:53;;;;;;;2.40;2.05;;;;;;;22.73;100.00;100334.56;5013035;28;20068;-86
2023/07/30 02:17:22;;;;;;;2.10;1.88;;;;;;;22.59;100.00;100340.69;5009999;28;20052;-85
2023/07/30 02:19:50;;;;;;;2.88;2.58;;;;;;;22.52;100.00;100360.88;5016578;28;20082;-86
2023/07/30 02:22:18;;;;;;;2.30;2.05;;;;;;;22.62;100.00;100375.41;5025970;28;20054;-86
2023/07/30 02:24:47;;;;;;;4.20;2.75;;;;;;;22.86;100.00;100379.06;5010779;28;20088;-86
2023/07/30 02:27:15;;;;;;;6.32;3.20;;;;;;;22.97;100.00;100380.03;5008986;28;20054;-87
2023/07/30 02:29:43;;;;;;;8.50;3.65;;;;;;;22.89;100.00;100395.03;5014861;28;20049;-86
2023/07/30 02:32:12;;;;;;;7.55;3.50;;;;;;;23.04;100.00;100408.09;5027962;28;20399;-86
2023/07/30 02:34:40;;;;;;;5.00;3.20;;;;;;;23.11;100.00;100420.56;5008828;28;20404;-86
2023/07/30 02:37:08;;;;;;;6.07;2.78;;;;;;;23.19;100.00;100413.94;5010985;28;20396;-87
2023/07/30 02:39:36;;;;;;;3.47;2.72;;;;;;;23.14;100.00;100429.00;5008973;28;20057;-87
2023/07/30 02:42:05;;;;;;;3.75;2.70;;;;;;;23.32;100.00;100418.19;5009963;28;20412;-87
2023/07/30 02:44:33;;;;;;;2.90;2.60;;;;;;;23.33;100.00;100433.78;5009755;28;20042;-87
2023/07/30 02:47:01;;;;;;;3.20;2.90;;;;;;;23.33;100.00;100430.97;4992590;28;20054;-87
2023/07/30 02:49:30;;;;;;;2.95;2.38;;;;;;;23.42;100.00;100430.72;5010229;28;20073;-86
2023/07/30 02:51:58;;;;;;;2.45;2.22;;;;;;;23.41;100.00;100437.47;5009110;28;20058;-87
2023/07/30 02:54:26;;;;;;;3.20;2.45;;;;;;;23.46;100.00;100436.38;5008288;28;20271;-87
2023/07/30 02:56:55;;;;;;;2.97;2.63;;;;;;;23.38;100.00;100429.03;5018374;28;20051;-87
2023/07/30 02:59:23;;;;;;;3.53;2.20;;;;;;;23.27;100.00;100440.00;5028912;28;20060;-87
2023/07/30 03:01:51;;;;;;;4.45;2.40;;;;;;;23.27;100.00;100432.41;5023837;28;20054;-87
2023/07/30 03:04:19;;;;;;;2.80;2.08;;;;;;;23.17;100.00;100442.22;5016693;28;20049;-87
2023/07/30 03:06:47;;;;;;;2.25;2.05;;;;;;;23.31;100.00;100440.91;5008180;28;20053;-87
2023/07/30 03:09:15;;;;;;;2.25;2.05;;;;;;;23.17;100.00;100433.84;5022115;28;20061;-87
2023/07/30 03:11:44;;;;;;;3.15;2.40;;;;;;;23.04;100.00;100447.16;5027690;28;20042;-86
2023/07/30 03:14:12;;;;;;;3.15;2.70;;;;;;;23.08;100.00;100444.44;5028412;28;20057;-87
2023/07/30 03:16:40;;;;;;;2.53;2.33;;;;;;;23.09;100.00;100452.44;5013968;28;20050;-86
2023/07/30 03:19:08;;;;;;;2.85;2.65;;;;;;;22.96;100.00;100442.59;5022708;28;20054;-86
2023/07/30 03:21:37;;;;;;;4.13;3.00;;;;;;;22.94;100.00;100442.19;5010069;28;20377;-86
2023/07/30 03:24:05;;;;;;;2.95;2.50;;;;;;;23.07;100.00;100438.03;5009460;28;20050;-86
2023/07/30 03:26:34;;;;;;;2.88;2.60;;;;;;;22.89;100.00;100442.47;5008938;28;20061;-86
2023/07/30 03:29:02;;;;;;;3.00;2.80;;;;;;;22.84;100.00;100442.75;5025322;28;20046;-86
2023/07/30 03:31:30;;;;;;;2.83;2.58;;;;;;;22.82;100.00;100443.94;5015423;28;20050;-87
2023/07/30 03:34:00;;;;;;;4.10;2.75;;;;;;;22.77;100.00;100430.28;5020345;28;20077;-87
2023/07/30 03:36:28;;;;;;;3.20;2.90;;;;;;;22.57;100.00;100442.63;5008730;28;20511;-86
2023/07/30 03:38:56;;;;;;;4.63;3.08;;;;;;;22.78;100.00;100447.84;5009991;28;20065;-86
2023/07/30 03:41:25;;;;;;;3.17;2.88;;;;;;;22.88;100.00;100452.03;5015850;28;20384;-86
2023/07/30 03:43:53;;;;;;;4.72;3.67;;;;;;;22.88;100.00;100452.03;5014914;28;20054;-87
2023/07/30 03:46:21;;;;;;;4.30;3.08;;;;;;;22.73;100.00;100451.72;4999501;28;20034;-86
2023/07/30 03:48:50;;;;;;;4.00;3.60;;;;;;;22.73;100.00;100450.91;5004252;28;20050;-86
2023/07/30 03:51:18;;;;;;;4.45;3.25;;;;;;;22.72;100.00;100461.25;5001122;28;20385;-87
2023/07/30 03:53:46;;;;;;;5.03;3.38;;;;;;;22.80;100.00;100448.28;5020249;28;20057;-87
2023/07/30 03:56:15;;;;;;;6.18;3.50;;;;;;;22.92;100.00;100453.69;4998853;28;20053;-87
2023/07/30 03:58:43;;;;;;;4.30;3.90;;;;;;;22.92;100.00;100453.69;5003442;28;20049;-86
2023/07/30 04:01:12;;;;;;;4.57;4.00;;;;;;;22.93;100.00;100451.72;5028202;28;20060;-87
2023/07/30 04:03:40;;;;;;;3.83;3.53;;;;;;;22.91;100.00;100454.06;5022153;28;20056;-86
2023/07/30 04:06:08;;;;;;;7.45;4.30;;;;;;;22.96;100.00;100450.97;5012355;28;20053;-87
2023/07/30 04:08:36;;;;;;;4.68;4.18;;;;;;;23.01;100.00;100455.47;5010188;28;20408;-86
2023/07/30 04:11:05;;;;;;;4.68;4.22;;;;;;;22.93;100.00;100460.09;5027025;28;20061;-86
2023/07/30 04:13:35;;;;;;;4.35;3.95;;;;;;;22.85;100.00;100463.91;5022277;28;20054;-87
2023/07/30 04:16:03;;;;;;;6.85;4.47;;;;;;;22.96;100.00;100462.13;5010310;28;20057;-88
2023/07/30 04:18:32;;;;;;;4.30;3.85;;;;;;;22.95;100.00;100463.31;5027658;28;20054;-87
2023/07/30 04:21:00;;;;;;;4.03;3.55;;;;;;;22.98;100.00;100462.59;5023585;28;20127;-87
2023/07/30 04:23:28;;;;;;;6.10;4.32;;;;;;;22.92;100.00;100455.69;5002193;28;20047;-86
2023/07/30 04:25:57;;;;;;;4.80;3.92;;;;;;;23.07;100.00;100465.94;5007889;28;20053;-86
2023/07/30 04:28:25;;;;;;;5.55;4.28;;;;;;;23.09;100.00;100462.78;5017421;28;20049;-86
2023/07/30 04:30:53;;;;;;;6.38;4.30;;;;;;;23.04;100.00;100458.31;5022877;28;20069;-86
2023/07/30 04:33:22;;;;;;;4.25;3.85;;;;;;;23.03;100.00;100465.06;5059401;28;20058;-87
2023/07/30 04:35:50;;;;;;;6.20;4.38;;;;;;;22.93;100.00;100463.69;5018299;28;20054;-86
2023/07/30 04:38:18;;;;;;;4.32;3.78;;;;;;;22.86;100.00;100459.97;5041612;28;20056;-87
2023/07/30 04:40:47;;;;;;;6.90;4.25;;;;;;;23.08;100.00;100466.78;5009496;28;20049;-86
2023/07/30 04:43:15;;;;;;;5.63;4.72;;;;;;;22.97;100.00;100458.16;5002768;28;20828;-87
2023/07/30 04:45:45;;;;;;;4.90;4.30;;;;;;;22.91;100.00;100462.44;5009702;28;20046;-86
2023/07/30 04:48:14;;;;;;;4.95;4.45;;;;;;;22.96;100.00;100464.94;5044397;28;20053;-86
2023/07/30 04:50:42;;;;;;;5.05;4.13;;;;;;;23.02;100.00;100457.88;5012659;28;20054;-86
2023/07/30 04:53:10;;;;;;;5.10;4.60;;;;;;;22.99;100.00;100463.38;5012712;28;20050;-87
2023/07/30 04:55:38;;;;;;;4.97;4.32;;;;;;;22.92;100.00;100455.69;4994403;28;20061;-86
2023/07/30 04:58:07;;;;;;;4.53;4.07;;;;;;;22.82;100.00;100463.47;5011646;28;20392;-86
2023/07/30 05:00:36;;;;;;;5.22;4.38;;;;;;;22.81;100.00;100461.03;5009927;28;20401;-86
2023/07/30 05:03:04;;;;;;;6.60;4.25;;;;;;;22.91;100.00;100462.44;5011955;28;20401;-86
2023/07/30 05:05:33;;;;;;;5.57;4.35;;;;;;;22.81;100.00;100461.88;5013148;28;20412;-86
2023/07/30 05:08:01;;;;;;;4.55;4.15;;;;;;;22.92;100.00;100466.84;5011755;28;20694;-86
2023/07/30 05:10:29;;;;;;;5.78;3.95;;;;;;;22.92;100.00;100469.66;5011432;28;20046;-85
2023/07/30 05:12:57;;;;;;;5.38;4.03;;;;;;;23.05;100.00;100471.09;5012681;28;20050;-85
2023/07/30 05:15:26;;;;;;;4.47;3.92;;;;;;;23.05;100.00;100473.88;5011442;28;20050;-85
2023/07/30 05:17:54;;;;;;;4.80;4.25;;;;;;;23.24;100.00;100472.25;5012285;28;20057;-85
2023/07/30 05:20:22;;;;;;;3.92;3.55;;;;;;;23.20;100.00;100472.19;5010984;28;20077;-85
2023/07/30 05:22:51;;;;;;;4.13;3.40;;;;;;;23.13;100.00;100472.06;5010908;28;20058;-85
2023/07/30 05:25:19;;;;;;;5.53;3.42;;;;;;;23.20;100.00;100482.53;5012226;28;20061;-85
2023/07/30 05:27:47;;;;;;;3.97;3.25;;;;;;;23.26;100.00;100478.25;5011107;28;20061;-85
2023/07/30 05:30:15;;;;;;;3.50;3.00;;;;;;;23.43;100.00;100490.16;5012709;28;20057;-85
2023/07/30 05:32:44;;;;;;;2.60;2.40;;;;;;;23.25;100.00;100503.78;5011287;28;20053;-85
2023/07/30 05:35:12;;;;;;;3.47;2.75;;;;;;;23.25;100.00;100503.78;5012607;28;20062;-85
2023/07/30 05:37:40;;;;;;;3.00;2.60;;;;;;;23.31;100.00;100503.13;5011167;28;20077;-84
2023/07/30 05:40:08;;;;;;;2.33;2.10;;;;;;;23.15;100.00;100502.38;5011213;28;20041;-84
2023/07/30 05:42:37;;;;;;;3.53;2.42;;;;;;;23.10;100.00;100503.47;5010990;28;20077;-85
2023/07/30 05:45:06;;;;;;;3.10;2.80;;;;;;;23.37;100.00;100506.44;5012274;28;20057;-84
2023/07/30 05:47:34;;;;;;;4.47;3.83;;;;;;;23.34;100.00;100496.81;4994166;28;20045;-85
2023/07/30 05:50:03;;;;;;;4.18;3.78;;;;;;;23.66;100.00;100508.94;5010269;28;20053;-83
2023/07/30 05:52:31;;;;;;;4.25;3.72;;;;;;;23.47;100.00;100511.38;5011594;28;20054;-83
2023/07/30 05:54:59;;;;;;;6.05;4.65;;;;;;;23.40;100.00;100505.66;5012416;28;20065;-84
2023/07/30 05:57:28;;;;;;;5.35;4.38;;;;;;;23.57;100.00;100514.75;5013432;28;20061;-84
2023/07/30 05:59:56;;;;;;;5.43;4.47;;;;;;;23.51;100.00;100516.25;5011478;28;20069;-83
2023/07/30 06:02:24;;;;;;;5.57;4.30;;;;;;;23.56;100.00;100529.91;5011876;28;20046;-84
2023/07/30 06:04:52;;;;;;;7.68;5.03;;;;;;;23.56;100.00;100530.69;5011217;28;20381;-83
2023/07/30 06:07:21;;;;;;;5.25;4.28;;;;;;;23.59;100.00;100524.38;5009470;28;20053;-83
2023/07/30 06:09:49;;;;;;;5.68;4.93;;;;;;;23.72;100.00;100527.81;5010319;28;20042;-84
2023/07/30 06:12:17;;;;;;;6.03;4.22;;;;;;;23.89;100.00;100534.06;5009911;28;20416;-82
2023/07/30 06:14:45;;;;;;;5.97;4.68;;;;;;;23.84;100.00;100537.97;5010225;28;20049;-83
2023/07/30 06:17:14;;;;;;;5.18;4.28;;;;;;;23.92;100.00;100538.91;5010394;28;20046;-83
2023/07/30 06:19:42;;;;;;;4.75;4.32;;;;;;;23.92;100.00;100530.53;5009828;28;20053;-83
2023/07/30 06:22:10;;;;;;;4.88;4.00;;;;;;;23.93;100.00;100532.16;5010616;28;20057;-83
2023/07/30 06:24:39;;;;;;;5.47;4.18;;;;;;;24.04;100.00;100526.72;4993113;28;20053;-83
2023/07/30 06:27:09;;;;;;;5.45;4.72;;;;;;;24.10;100.00;100527.25;5010212;28;20046;-83
2023/07/30 06:29:37;;;;;;;3.97;3.67;;;;;;;24.10;100.00;100530.84;5010526;28;20057;-83
2023/07/30 06:32:06;;;;;;;6.97;4.70;;;;;;;24.23;100.00;100513.88;5011270;28;20077;-83
2023/07/30 06:34:34;;;;;;;5.90;4.75;;;;;;;24.21;100.00;100524.63;5010268;28;20061;-83
2023/07/30 06:37:02;;;;;;;4.72;3.83;;;;;;;24.04;100.00;100532.31;5009644;28;20076;-82
2023/07/30 06:39:31;;;;;;;4.63;3.72;;;;;;;24.13;100.00;100535.69;5011660;28;20046;-83
2023/07/30 06:41:59;;;;;;;5.43;3.47;;;;;;;24.26;100.00;100529.91;5010446;28;20077;-82
2023/07/30 06:44:27;;;;;;;3.65;3.35;;;;;;;24.36;100.00;100526.47;5008137;28;20057;-83
2023/07/30 06:46:56;;;;;;;4.57;3.67;;;;;;;24.41;100.00;100534.53;5011247;28;20072;-82
2023/07/30 06:49:24;;;;;;;7.03;4.30;;;;;;;24.23;100.00;100539.84;5009774;28;20046;-83
2023/07/30 06:51:52;;;;;;;6.95;4.30;;;;;;;24.44;100.00;100530.19;5009805;28;20076;-82
2023/07/30 06:54:21;;;;;;;3.95;3.55;;;;;;;24.54;100.00;100531.53;5010106;28;20058;-81
2023/07/30 06:56:49;;;;;;;4.68;4.28;;;;;;;24.52;100.00;100536.66;5088152;28;20044;-81
2023/07/30 06:59:17;;;;;;;3.92;3.55;;;;;;;24.65;100.00;100532.47;5092717;28;20122;-82
2023/07/30 07:01:45;;;;;;;6.22;4.13;;;;;;;24.58;100.00;100539.97;5091975;28;20056;-81
2023/07/30 07:04:14;;;;;;;5.05;3.75;;;;;;;24.68;100.00;100537.31;5082164;28;20110;-82
2023/07/30 07:06:43;;;;;;;5.50;4.45;;;;;;;24.80;100.00;100535.47;5009523;28;20081;-83
2023/07/30 07:09:11;;;;;;;5.40;4.00;;;;;;;24.87;100.00;100537.59;5016583;28;20058;-83
2023/07/30 07:11:39;;;;;;;4.43;4.03;;;;;;;24.94;100.00;100541.25;5011760;28;20060;-84
2023/07/30 07:14:08;;;;;;;4.60;4.00;;;;;;;25.05;100.00;100538.63;5008779;28;20054;-85
2023/07/30 07:16:36;;;;;;;5.75;4.25;;;;;;;25.10;100.00;100529.06;5010106;28;20061;-84
2023/07/30 07:19:05;;;;;;;4.80;3.72;;;;;;;25.15;100.00;100537.13;5009505;28;20411;-81
2023/07/30 07:21:33;;;;;;;4.05;3.65;;;;;;;25.40;100.00;100538.63;5004148;28;20054;-83
2023/07/30 07:24:01;;;;;;;4.65;3.72;;;;;;;25.45;100.00;100527.88;5001875;28;20057;-82
2023/07/30 07:26:29;;;;;;;4.35;3.75;;;;;;;25.52;100.00;100520.72;5001373;28;20065;-84
2023/07/30 07:28:57;;;;;;;6.05;4.22;;;;;;;25.57;100.00;100524.00;5003473;28;20048;-87
2023/07/30 07:31:27;;;;;;;5.07;4.53;;;;;;;25.53;100.00;100533.53;5002623;28;20046;-85
2023/07/30 07:33:55;;;;;;;4.50;4.10;;;;;;;25.53;100.00;100528.78;5002798;28;20041;-86
2023/07/30 07:36:23;;;;;;;5.82;4.50;;;;;;;25.54;100.00;100532.38;5003967;28;20263;-85
2023/07/30 07:38:51;;;;;;;4.35;3.78;;;;;;;25.54;100.00;100532.38;5008644;28;20042;-82
2023/07/30 07:41:20;;;;;;;7.18;4.60;;;;;;;25.61;99.47;100540.88;5028205;28;20056;-83
2023/07/30 07:43:49;;;;;;;5.72;4.47;;;;;;;25.66;99.92;100543.28;5028468;28;20049;-85
2023/07/30 07:46:17;;;;;;;4.43;3.60;;;;;;;25.70;99.63;100538.53;5020253;28;20050;-84
2023/07/30 07:48:46;;;;;;;6.13;4.18;;;;;;;25.65;98.97;100536.09;5008911;28;20416;-85
2023/07/30 07:51:14;;;;;;;7.07;4.28;;;;;;;25.90;98.34;100541.94;4989600;28;20050;-85
2023/07/30 07:53:42;;;;;;;5.00;3.88;;;;;;;25.97;98.61;100529.97;5017199;28;20057;-86
2023/07/30 07:56:11;;;;;;;6.15;3.83;;;;;;;26.05;98.19;100528.03;5028226;28;20061;-82
2023/07/30 07:58:39;;;;;;;4.97;4.05;;;;;;;26.10;98.56;100530.47;4998295;28;20093;-82
2023/07/30 08:01:07;;;;;;;4.72;3.95;;;;;;;26.17;97.05;100543.75;5009540;28;20084;-82
2023/07/30 08:03:35;;;;;;;4.55;3.50;;;;;;;26.28;100.00;100538.25;5010355;28;20481;-82
2023/07/30 08:06:05;;;;;;;5.63;3.50;;;;;;;26.49;97.28;100548.81;5008821;28;20061;-83
2023/07/30 08:08:33;;;;;;;5.85;3.60;;;;;;;26.53;96.45;100538.41;5025026;28;20048;-83
2023/07/30 08:11:07;;;;;;;4.93;4.03;;;;;;;26.43;92.49;100542.75;5041347;28;20677;-83
2023/07/30 08:13:36;;;;;;;4.38;3.78;;;;;;;26.53;92.78;100541.22;5014696;28;20099;-82
2023/07/30 08:16:04;;;;;;;6.05;4.47;;;;;;;26.56;96.00;100532.03;5012401;28;20050;-82
2023/07/30 08:18:33;;;;;;;6.15;4.15;;;;;;;26.66;94.47;100540.88;5014579;28;20108;-82
2023/07/30 08:21:02;;;;;;;6.45;4.72;;;;;;;26.59;93.23;100549.28;4996338;28;20073;-82
2023/07/30 08:23:30;;;;;;;6.80;4.40;;;;;;;26.54;94.24;100544.84;4998056;28;20054;-81
2023/07/30 08:25:58;;;;;;;6.32;4.57;;;;;;;26.61;97.49;100539.25;5013788;28;20085;-81
2023/07/30 08:28:27;;;;;;;7.38;4.70;;;;;;;26.74;97.67;100530.50;5017112;28;20058;-81
2023/07/30 08:31:05;;;;;;;4.18;3.83;;;;;;;26.97;95.26;100530.22;5012501;28;20057;-81
2023/07/30 08:33:33;;;;;;;4.82;3.47;;;;;;;27.08;90.57;100533.88;4992400;28;20054;-81
2023/07/30 08:36:01;;;;;;;3.60;3.30;;;;;;;27.08;89.35;100527.50;5000036;28;20057;-81
2023/07/30 08:38:30;;;;;;;3.20;3.00;;;;;;;27.05;87.50;100531.06;5012961;28;20053;-81
2023/07/30 08:40:58;;;;;;;4.00;3.58;;;;;;;27.14;94.33;100530.69;5012444;28;20076;-82
2023/07/30 08:43:27;;;;;;;3.60;3.30;;;;;;;27.13;88.79;100529.09;5011646;28;20042;-81
2023/07/30 08:45:55;;;;;;;3.25;3.05;;;;;;;27.19;87.98;100528.31;5013523;28;20494;-81
2023/07/30 08:48:25;;;;;;;5.20;3.20;;;;;;;27.25;86.86;100534.34;5012149;28;20446;-78
2023/07/30 08:51:07;;;;;;;3.45;3.15;;;;;;;27.39;84.63;100538.41;5007746;28;20128;-90
2023/07/30 08:53:37;;;;;;;5.22;3.42;;;;;;;27.32;84.03;100531.56;4978262;28;20049;-88
2023/07/30 08:56:06;;;;;;;3.40;2.90;;;;;;;27.33;83.47;100530.34;4978036;28;20128;-83
2023/07/30 08:58:36;;;;;;;3.70;3.33;;;;;;;27.58;83.22;100526.84;4993588;28;20053;-86
2023/07/30 09:01:12;;;;;;;4.38;3.30;;;;;;;27.65;80.52;100517.59;4988486;28;20049;-81
2023/07/30 09:04:03;;;;;;;2.90;2.67;;;;;;;27.68;82.60;100524.44;5010521;28;20392;-81
2023/07/30 09:06:33;;;;;;;4.00;3.30;;;;;;;27.59;81.68;100514.38;5010874;28;20057;-82
2023/07/30 09:09:03;;;;;;;5.00;3.10;;;;;;;27.74;84.37;100514.38;5011199;28;20053;-87
2023/07/30 09:11:32;;;;;;;3.10;2.80;;;;;;;27.82;81.48;100518.84;4985024;28;20046;-86
2023/07/30 09:14:02;;;;;;;3.55;2.88;;;;;;;28.05;80.07;100511.97;5013615;28;19925;-89
2023/07/30 09:16:32;;;;;;;3.75;2.90;;;;;;;28.17;80.38;100491.09;5014513;28;20049;-86
2023/07/30 09:19:00;;;;;;;4.10;3.45;;;;;;;28.23;79.71;100499.94;5029709;28;20046;-87
2023/07/30 09:21:34;;;;;;;3.95;2.83;;;;;;;28.26;80.12;100501.94;5031761;28;20046;-86
2023/07/30 09:24:05;;;;;;;3.75;2.92;;;;;;;28.14;80.31;100494.69;5027757;28;20049;-79
2023/07/30 09:26:46;;;;;;;2.88;2.67;;;;;;;28.05;80.15;100495.09;5013756;28;20054;-79
2023/07/30 09:29:15;;;;;;;2.85;2.47;;;;;;;28.20;81.01;100497.91;4979131;28;20098;-79
2023/07/30 09:31:56;;;;;;;4.47;3.05;;;;;;;28.08;78.16;100501.94;5080005;28;20080;-79
2023/07/30 09:34:25;;;;;;;3.45;3.15;;;;;;;27.95;80.13;100495.94;4978684;28;20057;-79
2023/07/30 09:36:54;;;;;;;3.95;3.45;;;;;;;27.84;78.57;100499.53;4999102;28;20054;-80
2023/07/30 09:39:24;;;;;;;3.67;3.35;;;;;;;27.67;80.34;100501.16;5009071;28;20056;-79
2023/07/30 09:42:02;;;;;;;4.18;2.80;;;;;;;27.73;80.54;100496.75;4984278;28;20062;-80
2023/07/30 09:44:36;;;;;;;3.80;3.03;;;;;;;27.97;80.08;100482.25;4992391;28;20057;-79
2023/07/30 09:47:09;;;;;;;4.95;3.03;;;;;;;28.24;78.51;100484.69;5006231;28;20448;-78
2023/07/30 09:49:38;;;;;;;3.92;3.00;;;;;;;28.33;78.72;100490.69;5005096;28;20258;-78
2023/07/30 09:52:07;;;;;;;3.58;2.70;;;;;;;28.38;78.07;100492.25;4977169;28;20381;-79
2023/07/30 09:54:36;;;;;;;3.20;2.78;;;;;;;28.52;75.55;100495.06;5009196;28;20042;-79
2023/07/30 09:57:05;;;;;;;3.15;2.78;;;;;;;28.72;76.71;100482.53;4993027;28;20139;-78
2023/07/30 09:59:34;;;;;;;4.13;2.60;;;;;;;28.76;76.97;100488.94;5004665;28;20046;-78
2023/07/30 10:02:03;;;;;;;3.00;2.80;;;;;;;28.90;75.99;100488.91;4990093;28;20050;-78
2023/07/30 10:04:33;;;;;;;3.30;3.00;;;;;;;28.72;72.93;100500.22;4995264;28;20042;-78
2023/07/30 10:07:13;;;;;;;3.33;2.95;;;;;;;28.63;76.39;100499.84;5002696;28;20069;-79
2023/07/30 10:09:45;;;;;;;4.00;2.88;;;;;;;28.57;73.00;100494.63;5010028;28;20077;-78
2023/07/30 10:12:18;;;;;;;3.20;2.85;;;;;;;28.46;76.07;100493.06;4988815;28;20064;-79
2023/07/30 10:14:47;;;;;;;4.53;3.45;;;;;;;28.44;76.57;100491.44;5001472;28;20046;-80
2023/07/30 10:17:17;;;;;;;2.92;2.58;;;;;;;28.41;77.51;100492.28;4993596;28;20064;-79
2023/07/30 10:19:50;;;;;;;4.60;3.00;;;;;;;28.29;77.32;100492.69;5009580;28;20054;-80
2023/07/30 10:22:19;;;;;;;3.35;3.05;;;;;;;28.30;78.92;100491.50;5010017;28;20054;-79
2023/07/30 10:25:03;;;;;;;3.40;3.10;;;;;;;28.17;78.30;100483.47;4988687;28;20053;-80
2023/07/30 10:27:38;;;;;;;3.40;2.75;;;;;;;28.30;79.13;100486.66;5013165;28;20072;-79
2023/07/30 10:30:15;;;;;;;3.80;2.78;;;;;;;28.56;78.65;100497.84;4995655;28;20049;-79
2023/07/30 10:33:17;;;;;;;2.92;2.72;;;;;;;28.54;76.57;100500.28;5008592;28;20064;-79
2023/07/30 10:35:47;;;;;;;2.92;2.60;;;;;;;28.55;79.07;100490.63;5023930;28;20057;-78
2023/07/30 10:38:29;;;;;;;2.65;2.45;;;;;;;28.43;77.59;100494.66;4998144;28;20064;-79
2023/07/30 10:41:04;;;;;;;2.80;2.50;;;;;;;28.58;76.06;100501.06;4995220;28;20053;-79
2023/07/30 10:43:39;;;;;;;3.25;2.78;;;;;;;28.55;74.97;100501.88;4977632;28;20151;-78
2023/07/30 10:46:11;;;;;;;2.65;2.45;;;;;;;28.42;76.63;100493.88;4997168;28;20068;-78
2023/07/30 10:48:42;;;;;;;2.53;2.30;;;;;;;28.33;75.67;100489.88;4996807;28;20049;-78
2023/07/30 10:51:15;;;;;;;2.40;2.17;;;;;;;28.46;76.04;100501.50;4996678;28;20048;-78
2023/07/30 10:53:48;;;;;;;2.70;2.50;;;;;;;28.76;73.72;100489.75;5013443;28;20049;-78
2023/07/30 10:56:23;;;;;;;3.45;3.15;;;;;;;28.87;73.36;100489.72;4997512;28;20046;-78
2023/07/30 10:58:53;;;;;;;2.58;2.38;;;;;;;28.89;69.97;100478.06;4997584;28;20049;-78
2023/07/30 11:01:26;;;;;;;2.78;2.58;;;;;;;28.82;70.14;100476.03;5011735;28;20057;-79
2023/07/30 11:03:55;;;;;;;3.47;2.40;;;;;;;28.90;73.33;100466.38;5012019;28;20054;-78
2023/07/30 11:06:25;;;;;;;3.08;2.17;;;;;;;29.03;71.70;100463.09;4996242;28;20053;-79
2023/07/30 11:08:54;;;;;;;2.90;2.47;;;;;;;29.23;70.62;100478.25;5012258;28;20054;-79
2023/07/30 11:11:25;;;;;;;2.83;2.33;;;;;;;29.52;69.09;100465.22;4995637;28;20056;-79
2023/07/30 11:13:53;;;;;;;2.50;2.25;;;;;;;29.72;66.17;100457.00;4996100;28;20049;-79
2023/07/30 11:16:22;;;;;;;2.78;2.58;;;;;;;30.00;66.99;100464.38;4995787;28;20049;-78
2023/07/30 11:18:51;;;;;;;3.17;2.42;;;;;;;30.01;66.42;100454.69;4995738;28;20053;-79
2023/07/30 11:21:20;;;;;;;3.08;2.30;;;;;;;30.25;64.38;100463.34;4995135;28;20042;-79
2023/07/30 11:23:51;;;;;;;2.38;2.17;;;;;;;30.43;66.07;100459.53;4995741;28;20396;-79
2023/07/30 11:26:20;;;;;;;2.92;2.20;;;;;;;30.54;62.66;100465.84;4983630;28;20068;-78
2023/07/30 11:28:49;;;;;;;2.67;2.47;;;;;;;30.63;63.24;100473.03;5007028;28;20053;-88
2023/07/30 11:32:07;;;;;;;2.30;2.10;;;;;;;30.72;64.77;100469.72;5017726;28;20068;-81